createdAt,value
2022-11-29T00:03:14.805Z,4.47
2022-11-29T00:05:45.652Z,4.97
2022-11-29T00:08:16.544Z,4.95
2022-11-29T00:10:47.469Z,4.40
2022-11-29T00:13:19.286Z,4.85
2022-11-29T00:15:50.164Z,4.65
2022-11-29T00:18:20.880Z,4.85
2022-11-29T00:20:51.516Z,4.45
2022-11-29T00:23:23.235Z,3.80
2022-11-29T00:25:54.632Z,5.03
2022-11-29T00:28:25.432Z,4.43
2022-11-29T00:30:59.039Z,5.53
2022-11-29T00:33:30.574Z,5.22
2022-11-29T00:36:03.698Z,5.03
2022-11-29T00:38:34.831Z,5.18
2022-11-29T00:41:06.346Z,4.65
2022-11-29T00:43:37.409Z,5.05
2022-11-29T00:46:09.161Z,5.25
2022-11-29T00:48:40.759Z,4.50
2022-11-29T00:51:12.184Z,4.93
2022-11-29T00:53:43.204Z,4.88
2022-11-29T00:59:02.445Z,4.72
2022-11-29T01:01:32.908Z,4.45
2022-11-29T01:04:04.318Z,4.85
2022-11-29T01:06:36.204Z,5.30
2022-11-29T01:09:07.747Z,4.70
2022-11-29T01:11:38.816Z,5.05
2022-11-29T01:14:09.626Z,4.70
2022-11-29T01:16:40.114Z,4.55
2022-11-29T01:19:11.314Z,5.07
2022-11-29T01:21:43.706Z,4.88
2022-11-29T01:24:14.593Z,5.15
2022-11-29T01:26:45.313Z,4.50
2022-11-29T01:32:01.429Z,4.70
2022-11-29T01:34:32.045Z,4.82
2022-11-29T01:37:03.627Z,4.72
2022-11-29T01:39:34.235Z,5.10
2022-11-29T01:42:05.162Z,4.72
2022-11-29T01:44:35.380Z,4.97
2022-11-29T01:47:06.321Z,5.35
2022-11-29T01:49:41.129Z,5.10
2022-11-29T01:55:13.273Z,4.90
2022-11-29T01:57:45.005Z,5.28
2022-11-29T02:00:20.201Z,5.30
2022-11-29T02:03:01.210Z,7.50
2022-11-29T02:05:32.022Z,5.10
2022-11-29T02:08:03.916Z,5.10
2022-11-29T02:10:53.257Z,5.18
2022-11-29T02:14:05.345Z,6.10
2022-11-29T02:16:59.922Z,7.32
2022-11-29T02:19:51.734Z,7.25
2022-11-29T02:22:25.742Z,8.90
2022-11-29T02:25:24.156Z,9.45
2022-11-29T02:28:31.694Z,8.00
2022-11-29T02:31:20.410Z,8.90
2022-11-29T02:34:08.770Z,8.32
2022-11-29T02:37:12.448Z,8.68
2022-11-29T02:39:54.042Z,8.95
2022-11-29T02:42:56.554Z,9.93
2022-11-29T02:45:48.671Z,8.93
2022-11-29T02:48:35.549Z,7.63
2022-11-29T02:51:43.253Z,9.35
2022-11-29T02:54:28.594Z,8.43
2022-11-29T02:57:32.796Z,8.82
2022-11-29T03:00:16.358Z,9.27
2022-11-29T03:02:53.406Z,7.80
2022-11-29T03:05:33.260Z,8.27
2022-11-29T03:08:54.403Z,8.43
2022-11-29T03:11:55.239Z,8.50
2022-11-29T03:14:29.803Z,8.13
2022-11-29T03:17:18.939Z,7.97
2022-11-29T03:20:24.239Z,7.40
2022-11-29T03:23:12.851Z,6.90
2022-11-29T03:26:15.490Z,6.32
2022-11-29T03:29:08.420Z,7.15
2022-11-29T03:31:50.187Z,7.38
2022-11-29T03:34:57.372Z,6.22
2022-11-29T03:37:49.601Z,6.00
2022-11-29T03:40:47.891Z,6.03
2022-11-29T03:43:45.457Z,5.63
2022-11-29T03:46:47.411Z,5.95
2022-11-29T03:49:51.060Z,5.80
2022-11-29T03:52:42.774Z,6.18
2022-11-29T03:55:16.514Z,5.50
2022-11-29T03:58:23.612Z,6.75
2022-11-29T04:00:57.139Z,6.40
2022-11-29T04:03:58.075Z,6.03
2022-11-29T04:07:06.862Z,5.68
2022-11-29T04:09:44.562Z,4.93
2022-11-29T04:12:47.259Z,5.10
2022-11-29T04:15:44.505Z,5.97
2022-11-29T04:18:39.361Z,5.38
2022-11-29T04:21:51.394Z,4.78
2022-11-29T04:24:46.333Z,4.80
2022-11-29T04:27:45.960Z,5.68
2022-11-29T04:30:22.532Z,5.88
2022-11-29T04:33:06.582Z,5.00
2022-11-29T04:38:46.297Z,5.13
2022-11-29T04:41:40.797Z,4.95
2022-11-29T04:47:46.582Z,5.05
2022-11-29T04:50:27.048Z,4.80
2022-11-29T04:53:13.581Z,5.10
2022-11-29T04:56:03.606Z,5.05
2022-11-29T04:58:34.324Z,5.97
2022-11-29T05:01:28.041Z,4.68
2022-11-29T05:04:15.126Z,4.25
2022-11-29T05:07:10.103Z,4.07
2022-11-29T05:13:17.772Z,4.38
2022-11-29T05:16:25.398Z,5.38
2022-11-29T05:19:36.628Z,4.65
2022-11-29T05:22:22.956Z,4.95
2022-11-29T05:25:04.843Z,4.60
2022-11-29T05:27:48.277Z,4.75
2022-11-29T05:30:27.805Z,4.82
2022-11-29T05:33:37.983Z,5.38
2022-11-29T05:36:26.867Z,4.55
2022-11-29T05:39:41.182Z,4.35
2022-11-29T05:42:51.552Z,4.37
2022-11-29T05:45:31.904Z,4.13
2022-11-29T05:48:26.398Z,4.95
2022-11-29T05:51:24.073Z,4.63
2022-11-29T05:54:14.012Z,4.38
2022-11-29T05:57:20.609Z,4.28
2022-11-29T05:59:55.023Z,5.05
2022-11-29T06:02:52.714Z,4.10
2022-11-29T06:05:43.703Z,4.20
2022-11-29T06:08:21.748Z,4.28
2022-11-29T06:11:21.519Z,4.00
2022-11-29T06:14:16.248Z,3.70
2022-11-29T06:17:03.199Z,3.63
2022-11-29T06:19:40.942Z,3.97
2022-11-29T06:22:31.524Z,4.10
2022-11-29T06:25:39.459Z,4.25
2022-11-29T06:28:14.080Z,3.90
2022-11-29T06:31:05.423Z,3.90
2022-11-29T06:34:14.539Z,4.45
2022-11-29T06:36:55.953Z,3.67
2022-11-29T06:39:29.628Z,3.88
2022-11-29T06:42:03.045Z,3.72
2022-11-29T06:44:33.700Z,3.35
2022-11-29T06:47:30.157Z,3.60
2022-11-29T06:50:40.347Z,3.33
2022-11-29T06:53:30.192Z,3.38
2022-11-29T06:56:30.257Z,3.33
2022-11-29T06:59:11.658Z,3.60
2022-11-29T07:02:06.917Z,3.50
2022-11-29T07:05:04.552Z,3.08
2022-11-29T07:07:36.558Z,3.58
2022-11-29T07:10:13.444Z,3.40
2022-11-29T07:12:50.140Z,3.15
2022-11-29T07:15:24.156Z,3.20
2022-11-29T07:21:33.866Z,3.13
2022-11-29T07:24:24.806Z,3.17
2022-11-29T07:27:20.868Z,3.30
2022-11-29T07:30:22.442Z,3.20
2022-11-29T07:33:09.640Z,3.17
2022-11-29T07:36:16.141Z,3.28
2022-11-29T07:38:57.105Z,3.40
2022-11-29T07:41:41.746Z,3.40
2022-11-29T07:44:41.326Z,3.10
2022-11-29T07:47:13.103Z,3.10
2022-11-29T07:49:43.446Z,2.63
2022-11-29T07:52:38.409Z,2.80
2022-11-29T07:55:18.921Z,2.80
2022-11-29T07:57:51.117Z,3.28
2022-11-29T08:00:22.704Z,2.90
2022-11-29T08:02:53.750Z,2.97
2022-11-29T08:05:25.288Z,2.55
2022-11-29T08:07:57.193Z,2.78
2022-11-29T08:10:28.285Z,2.70
2022-11-29T08:13:00.209Z,2.97
2022-11-29T08:15:35.610Z,2.50
2022-11-29T08:18:07.186Z,2.75
2022-11-29T08:20:38.262Z,2.85
2022-11-29T08:23:09.426Z,2.47
2022-11-29T08:25:40.132Z,2.80
2022-11-29T08:28:12.342Z,2.92
2022-11-29T08:30:42.932Z,2.90
2022-11-29T08:33:13.783Z,3.05
2022-11-29T08:35:44.283Z,2.50
2022-11-29T08:38:14.984Z,2.80
2022-11-29T08:40:46.925Z,2.60
2022-11-29T08:43:17.782Z,2.70
2022-11-29T08:45:54.180Z,2.30
2022-11-29T08:48:27.710Z,2.42
2022-11-29T08:50:59.261Z,2.53
2022-11-29T08:53:47.518Z,2.53
2022-11-29T08:59:10.882Z,2.90
2022-11-29T09:01:41.346Z,2.72
2022-11-29T09:04:14.411Z,2.85
2022-11-29T09:06:45.651Z,2.50
2022-11-29T09:09:16.462Z,2.53
2022-11-29T09:11:49.733Z,3.15
2022-11-29T09:14:21.179Z,2.72
2022-11-29T09:16:51.869Z,4.47
2022-11-29T09:19:22.569Z,6.63
2022-11-29T09:21:54.175Z,8.68
2022-11-29T09:24:24.911Z,8.85
2022-11-29T09:26:55.593Z,14.05
2022-11-29T09:32:11.998Z,10.55
2022-11-29T09:34:43.906Z,10.85
2022-11-29T09:37:34.439Z,10.73
2022-11-29T09:40:06.550Z,10.23
2022-11-29T09:43:08.821Z,10.48
2022-11-29T09:45:44.994Z,9.65
2022-11-29T09:48:59.870Z,8.75
2022-11-29T09:51:56.656Z,9.68
2022-11-29T09:54:27.712Z,8.65
2022-11-29T09:57:03.843Z,7.93
2022-11-29T09:59:48.949Z,8.05
2022-11-29T10:02:49.120Z,8.50
2022-11-29T10:05:26.003Z,8.60
2022-11-29T10:08:24.259Z,8.15
2022-11-29T10:11:37.351Z,7.78
2022-11-29T10:14:21.879Z,7.88
2022-11-29T10:17:27.334Z,7.72
2022-11-29T10:20:15.355Z,7.40
2022-11-29T10:25:53.600Z,7.55
2022-11-29T10:28:27.789Z,7.15
2022-11-29T10:33:51.649Z,6.85
2022-11-29T10:36:47.357Z,7.57
2022-11-29T10:39:31.753Z,7.00
2022-11-29T10:42:05.594Z,6.78
2022-11-29T10:44:56.281Z,7.20
2022-11-29T10:47:27.193Z,6.65
2022-11-29T10:50:01.536Z,6.93
2022-11-29T10:52:32.657Z,7.00
2022-11-29T10:55:04.732Z,6.53
2022-11-29T10:57:37.887Z,6.90
2022-11-29T11:00:12.917Z,7.15
2022-11-29T11:02:43.535Z,6.15
2022-11-29T11:05:20.847Z,6.10
2022-11-29T11:08:01.576Z,5.70
2022-11-29T11:10:32.394Z,6.10
2022-11-29T11:13:05.466Z,6.32
2022-11-29T11:15:35.986Z,5.67
2022-11-29T11:18:08.631Z,6.28
2022-11-29T11:20:42.228Z,6.13
2022-11-29T11:23:39.909Z,5.90
2022-11-29T11:26:15.787Z,5.68
2022-11-29T11:28:52.048Z,5.88
2022-11-29T11:31:37.074Z,5.47
2022-11-29T11:34:39.270Z,6.07
2022-11-29T11:37:24.908Z,6.15
2022-11-29T11:40:02.619Z,6.38
2022-11-29T11:42:40.663Z,5.60
2022-11-29T11:45:18.448Z,5.93
2022-11-29T11:47:52.078Z,5.68
2022-11-29T11:50:42.478Z,5.13
2022-11-29T11:53:32.803Z,4.80
2022-11-29T11:56:08.651Z,5.28
2022-11-29T11:58:58.581Z,5.03
2022-11-29T12:07:05.782Z,4.57
2022-11-29T12:10:01.496Z,5.10
2022-11-29T12:12:45.485Z,5.30
2022-11-29T12:15:45.076Z,5.35
2022-11-29T12:18:39.639Z,4.65
2022-11-29T12:24:11.984Z,4.68
2022-11-29T12:26:59.653Z,5.05
2022-11-29T12:29:36.174Z,5.15
2022-11-29T12:32:16.392Z,5.28
2022-11-29T12:35:22.074Z,5.03
2022-11-29T12:38:39.235Z,5.55
2022-11-29T12:41:28.987Z,5.50
2022-11-29T12:44:33.589Z,4.97
2022-11-29T12:50:33.752Z,5.28
2022-11-29T12:53:33.761Z,4.93
2022-11-29T12:56:31.396Z,5.47
2022-11-29T12:59:22.796Z,5.20
2022-11-29T13:02:14.871Z,5.15
2022-11-29T13:05:05.020Z,5.20
2022-11-29T13:07:50.008Z,5.30
2022-11-29T13:10:23.409Z,4.75
2022-11-29T13:13:22.472Z,4.25
2022-11-29T13:16:32.168Z,5.00
2022-11-29T13:20:01.684Z,5.30
2022-11-29T13:23:11.936Z,4.68
2022-11-29T13:26:05.747Z,5.30
2022-11-29T13:28:58.733Z,5.38
2022-11-29T13:31:31.117Z,5.22
2022-11-29T13:34:08.936Z,5.25
2022-11-29T13:37:17.733Z,4.97
2022-11-29T13:40:11.496Z,4.82
2022-11-29T13:45:46.228Z,4.50
2022-11-29T13:48:37.086Z,4.15
2022-11-29T13:51:50.952Z,4.55
2022-11-29T13:54:35.737Z,4.80
2022-11-29T13:57:09.670Z,4.80
2022-11-29T13:59:47.313Z,5.15
2022-11-29T14:02:32.800Z,4.63
2022-11-29T14:05:03.318Z,4.93
2022-11-29T14:07:34.794Z,4.55
2022-11-29T14:10:29.292Z,5.15
2022-11-29T14:15:58.692Z,4.82
2022-11-29T14:18:47.257Z,5.18
2022-11-29T14:21:22.289Z,4.95
2022-11-29T14:24:40.389Z,4.82
2022-11-29T14:27:27.335Z,4.65
2022-11-29T14:30:01.213Z,4.88
2022-11-29T14:32:46.699Z,5.10
2022-11-29T14:36:19.483Z,4.93
2022-11-29T14:39:32.086Z,4.70
2022-11-29T14:42:08.098Z,4.72
2022-11-29T14:45:00.059Z,4.45
2022-11-29T14:47:41.091Z,4.18
2022-11-29T14:50:38.669Z,4.88
2022-11-29T14:53:36.619Z,4.93
2022-11-29T14:56:39.997Z,5.35
2022-11-29T14:59:54.592Z,4.72
2022-11-29T15:02:42.018Z,5.00
2022-11-29T15:05:56.225Z,4.35
2022-11-29T15:08:53.567Z,5.30
2022-11-29T15:11:57.040Z,5.20
2022-11-29T15:14:54.260Z,5.72
2022-11-29T15:17:56.222Z,5.40
2022-11-29T15:21:16.110Z,5.40
2022-11-29T15:23:52.146Z,5.75
2022-11-29T15:26:36.266Z,5.03
2022-11-29T15:29:30.298Z,5.32
2022-11-29T15:32:46.553Z,5.82
2022-11-29T15:35:24.960Z,5.97
2022-11-29T15:38:24.410Z,5.07
2022-11-29T15:40:58.715Z,5.40
2022-11-29T15:44:06.346Z,5.90
2022-11-29T15:47:26.249Z,5.68
2022-11-29T15:50:02.149Z,5.40
2022-11-29T15:53:02.998Z,5.45
2022-11-29T15:55:58.634Z,5.50
2022-11-29T15:58:34.547Z,5.35
2022-11-29T16:01:27.880Z,5.75
2022-11-29T16:04:22.414Z,5.45
2022-11-29T16:07:01.370Z,6.00
2022-11-29T16:13:01.207Z,6.10
2022-11-29T16:15:43.258Z,5.13
2022-11-29T16:18:44.401Z,5.28
2022-11-29T16:21:34.895Z,5.88
2022-11-29T16:24:22.160Z,5.40
2022-11-29T16:27:01.549Z,5.15
2022-11-29T16:29:51.168Z,4.93
2022-11-29T16:32:39.487Z,5.88
2022-11-29T16:35:24.640Z,5.45
2022-11-29T16:38:24.839Z,5.07
2022-11-29T16:41:29.019Z,5.88
2022-11-29T16:44:57.960Z,5.65
2022-11-29T16:48:03.601Z,5.72
2022-11-29T16:50:37.877Z,5.20
2022-11-29T16:54:03.368Z,5.32
2022-11-29T16:57:26.055Z,4.85
2022-11-29T17:00:00.011Z,5.35
2022-11-29T17:05:28.713Z,5.15
2022-11-29T17:08:01.413Z,4.65
2022-11-29T17:10:56.705Z,5.68
2022-11-29T17:13:30.433Z,5.10
2022-11-29T17:16:04.745Z,5.25
2022-11-29T17:18:59.919Z,4.80
2022-11-29T17:21:35.265Z,4.85
2022-11-29T17:24:14.337Z,4.65
2022-11-29T17:26:50.060Z,4.88
2022-11-29T17:29:24.458Z,4.63
2022-11-29T17:32:00.189Z,4.18
2022-11-29T17:37:58.742Z,4.82
2022-11-29T17:40:32.127Z,4.75
2022-11-29T17:43:06.951Z,4.97
2022-11-29T17:48:33.759Z,4.80
2022-11-29T17:51:22.619Z,4.88
2022-11-29T17:54:02.879Z,4.65
2022-11-29T17:56:36.275Z,4.68
2022-11-29T17:59:09.086Z,4.15
2022-11-29T18:01:43.691Z,4.70
2022-11-29T18:04:16.818Z,4.97
2022-11-29T18:07:28.517Z,4.20
2022-11-29T18:10:00.753Z,4.90
2022-11-29T18:12:32.851Z,4.32
2022-11-29T18:15:05.096Z,4.47
2022-11-29T18:17:57.819Z,4.30
2022-11-29T18:20:30.904Z,4.22
2022-11-29T18:30:19.399Z,4.07
2022-11-29T18:36:13.342Z,3.53
2022-11-29T18:38:47.737Z,3.72
2022-11-29T18:41:22.802Z,3.90
2022-11-29T18:44:07.420Z,4.05
2022-11-29T18:46:41.243Z,4.00
2022-11-29T18:49:15.765Z,4.15
2022-11-29T18:51:49.617Z,3.92
2022-11-29T18:56:53.752Z,4.15
2022-11-29T18:59:35.209Z,4.30
2022-11-29T19:02:07.280Z,3.72
2022-11-29T19:04:39.537Z,3.53
2022-11-29T19:07:12.786Z,4.13
2022-11-29T19:09:44.625Z,4.20
2022-11-29T19:12:16.285Z,4.35
2022-11-29T19:14:49.963Z,3.63
2022-11-29T19:19:53.917Z,3.60
2022-11-29T19:22:25.265Z,3.22
2022-11-29T19:25:16.096Z,3.75
2022-11-29T19:27:49.531Z,3.28
2022-11-29T19:30:20.625Z,3.40
2022-11-29T19:32:51.714Z,3.17
2022-11-29T19:35:22.853Z,3.40
2022-11-29T19:37:53.912Z,3.05
2022-11-29T19:40:24.960Z,2.95
2022-11-29T19:42:56.409Z,3.42
2022-11-29T19:45:55.224Z,3.13
2022-11-29T19:48:26.210Z,2.85
2022-11-29T19:50:56.833Z,3.35
2022-11-29T19:53:27.600Z,3.55
2022-11-29T19:56:00.217Z,2.72
2022-11-29T19:58:30.897Z,2.90
2022-11-29T20:01:12.550Z,2.80
2022-11-29T20:03:43.871Z,2.70
2022-11-29T20:06:15.365Z,3.15
2022-11-29T20:08:46.696Z,3.00
2022-11-29T20:11:20.532Z,2.80
2022-11-29T20:16:29.355Z,2.67
2022-11-29T20:19:00.711Z,2.63
2022-11-29T20:24:18.673Z,3.03
2022-11-29T20:26:51.155Z,2.55
2022-11-29T20:29:22.987Z,2.33
2022-11-29T20:31:53.262Z,2.40
2022-11-29T20:34:23.776Z,2.40
2022-11-29T20:37:03.307Z,2.83
2022-11-29T20:39:52.959Z,2.35
2022-11-29T20:42:41.396Z,2.20
2022-11-29T20:45:17.253Z,2.33
2022-11-29T20:48:02.928Z,2.30
2022-11-29T20:50:34.298Z,2.45
2022-11-29T20:53:26.651Z,2.25
2022-11-29T20:55:57.357Z,1.95
2022-11-29T20:58:29.986Z,2.25
2022-11-29T21:01:00.945Z,1.95
2022-11-29T21:03:32.542Z,1.85
2022-11-29T21:06:07.484Z,1.90
2022-11-29T21:08:39.210Z,1.98
2022-11-29T21:11:11.618Z,2.15
2022-11-29T21:13:42.402Z,1.70
2022-11-29T21:16:14.869Z,1.70
2022-11-29T21:18:46.018Z,2.35
2022-11-29T21:21:46.063Z,1.98
2022-11-29T21:24:34.028Z,1.83
2022-11-29T21:27:05.629Z,1.88
2022-11-29T21:29:36.538Z,1.98
2022-11-29T21:32:07.414Z,1.80
2022-11-29T21:34:38.041Z,1.70
2022-11-29T21:37:10.619Z,2.25
2022-11-29T21:39:41.054Z,1.60
2022-11-29T21:42:11.491Z,1.50
2022-11-29T21:44:41.810Z,1.98
2022-11-29T21:47:12.327Z,1.42
2022-11-29T21:49:43.030Z,2.10
2022-11-29T21:52:17.689Z,1.92
2022-11-29T21:54:51.311Z,1.67
2022-11-29T21:57:21.871Z,1.88
2022-11-29T21:59:52.343Z,1.65
2022-11-29T22:02:22.734Z,1.63
2022-11-29T22:04:53.152Z,1.60
2022-11-29T22:07:23.793Z,2.03
2022-11-29T22:09:54.274Z,1.80
2022-11-29T22:12:34.119Z,1.60
2022-11-29T22:15:05.281Z,1.48
2022-11-29T22:17:35.866Z,1.40
2022-11-29T22:20:06.644Z,1.40
2022-11-29T22:22:37.227Z,1.65
2022-11-29T22:25:08.239Z,1.50
2022-11-29T22:27:38.654Z,1.77
2022-11-29T22:30:10.624Z,1.63
2022-11-29T22:32:41.177Z,1.45
2022-11-29T22:35:11.667Z,1.42
2022-11-29T22:40:28.254Z,1.42
2022-11-29T22:42:58.705Z,1.42
2022-11-29T22:45:29.050Z,1.52
2022-11-29T22:48:00.583Z,1.65
2022-11-29T22:50:31.177Z,1.48
2022-11-29T22:53:01.515Z,0.90
2022-11-29T22:55:31.817Z,1.35
2022-11-29T22:58:02.322Z,1.33
2022-11-29T23:00:33.303Z,1.23
2022-11-29T23:03:03.919Z,1.35
2022-11-29T23:05:35.358Z,1.25
2022-11-29T23:08:06.059Z,1.40
2022-11-29T23:10:36.709Z,1.17
2022-11-29T23:13:07.086Z,1.33
2022-11-29T23:15:37.725Z,1.45
2022-11-29T23:23:22.480Z,1.40
2022-11-29T23:25:56.091Z,1.20
2022-11-29T23:28:26.946Z,1.20
2022-11-29T23:30:57.803Z,1.25
2022-11-29T23:33:29.360Z,1.40
2022-11-29T23:36:05.989Z,1.20
2022-11-29T23:38:37.457Z,1.40
2022-11-29T23:41:08.836Z,1.45
2022-11-29T23:43:41.730Z,1.08
2022-11-29T23:46:17.287Z,0.93
2022-11-29T23:48:48.379Z,1.13
2022-11-29T23:51:20.161Z,1.00
2022-11-29T23:53:56.831Z,1.40
2022-11-29T23:56:27.535Z,1.00
2022-11-29T23:58:58.160Z,1.10
